createdAt,value
2018-09-25T00:00:15.818Z,102414.62
2018-09-25T00:02:50.040Z,102408.25
2018-09-25T00:05:24.221Z,102410.44
2018-09-25T00:07:58.475Z,102414.00
2018-09-25T00:10:32.618Z,102415.91
2018-09-25T00:13:06.915Z,102408.04
2018-09-25T00:15:41.076Z,102410.69
2018-09-25T00:18:15.256Z,102421.92
2018-09-25T00:20:49.660Z,102411.69
2018-09-25T00:23:23.845Z,102421.53
2018-09-25T00:25:58.103Z,102419.77
2018-09-25T00:28:32.276Z,102423.59
2018-09-25T00:31:06.427Z,102415.06
2018-09-25T00:33:40.752Z,102425.23
2018-09-25T00:36:14.954Z,102423.05
2018-09-25T00:38:49.276Z,102422.02
2018-09-25T00:41:23.465Z,102422.39
2018-09-25T00:43:57.624Z,102425.36
2018-09-25T00:46:31.696Z,102424.08
2018-09-25T00:49:05.838Z,102423.89
2018-09-25T00:51:39.909Z,102425.25
2018-09-25T00:54:14.169Z,102421.15
2018-09-25T00:56:48.329Z,102418.81
2018-09-25T00:59:22.626Z,102422.58
2018-09-25T01:01:56.816Z,102415.69
2018-09-25T01:04:31.467Z,102413.84
2018-09-25T01:07:06.165Z,102404.67
2018-09-25T01:09:40.822Z,102408.88
2018-09-25T01:12:15.343Z,102410.13
2018-09-25T01:14:50.053Z,102403.82
2018-09-25T01:17:24.595Z,102402.02
2018-09-25T01:19:59.089Z,102412.56
2018-09-25T01:22:33.683Z,102410.77
2018-09-25T01:25:08.036Z,102410.91
2018-09-25T01:27:42.551Z,102403.37
2018-09-25T01:30:16.985Z,102401.94
2018-09-25T01:32:51.399Z,102390.84
2018-09-25T01:35:26.044Z,102396.11
2018-09-25T01:38:00.343Z,102402.41
2018-09-25T01:40:34.858Z,102404.16
2018-09-25T01:43:09.420Z,102414.09
2018-09-25T01:45:43.762Z,102410.27
2018-09-25T01:48:18.108Z,102410.70
2018-09-25T01:50:52.776Z,102403.64
2018-09-25T01:53:27.144Z,102403.67
2018-09-25T01:56:01.571Z,102403.03
2018-09-25T01:58:36.048Z,102414.81
2018-09-25T02:01:10.741Z,102412.75
2018-09-25T02:03:45.066Z,102418.45
2018-09-25T02:06:19.683Z,102421.53
2018-09-25T02:08:54.018Z,102415.28
2018-09-25T02:11:28.659Z,102418.28
2018-09-25T02:14:02.846Z,102423.39
2018-09-25T02:16:37.131Z,102425.51
2018-09-25T02:19:11.347Z,102427.03
2018-09-25T02:21:45.931Z,102430.41
2018-09-25T02:24:20.352Z,102425.42
2018-09-25T02:26:54.626Z,102431.70
2018-09-25T02:29:28.753Z,102433.67
2018-09-25T02:32:03.033Z,102439.46
2018-09-25T02:34:37.162Z,102441.73
2018-09-25T02:37:11.352Z,102443.58
2018-09-25T02:39:45.476Z,102443.37
2018-09-25T02:42:19.665Z,102442.69
2018-09-25T02:44:54.054Z,102438.44
2018-09-25T02:47:28.365Z,102433.89
2018-09-25T02:50:02.582Z,102435.50
2018-09-25T02:52:36.770Z,102435.50
2018-09-25T02:55:10.875Z,102442.83
2018-09-25T02:57:45.108Z,102443.23
2018-09-25T03:00:19.400Z,102445.48
2018-09-25T03:02:53.566Z,102445.92
2018-09-25T03:05:27.762Z,102444.69
2018-09-25T03:08:01.961Z,102442.20
2018-09-25T03:10:36.075Z,102446.05
2018-09-25T03:13:10.246Z,102446.41
2018-09-25T03:15:44.505Z,102445.38
2018-09-25T03:18:18.571Z,102440.58
2018-09-25T03:20:52.539Z,102439.17
2018-09-25T03:23:26.749Z,102446.02
2018-09-25T03:26:00.906Z,102443.63
2018-09-25T03:28:35.064Z,102443.02
2018-09-25T03:31:09.154Z,102442.44
2018-09-25T03:33:43.297Z,102442.23
2018-09-25T03:36:17.427Z,102446.69
2018-09-25T03:38:51.572Z,102440.45
2018-09-25T03:41:25.861Z,102449.22
2018-09-25T03:43:59.809Z,102446.22
2018-09-25T03:46:33.815Z,102449.88
2018-09-25T03:49:07.757Z,102452.31
2018-09-25T03:51:41.854Z,102456.18
2018-09-25T03:54:15.970Z,102454.56
2018-09-25T03:56:49.930Z,102456.31
2018-09-25T03:59:24.028Z,102450.98
2018-09-25T04:01:58.167Z,102453.08
2018-09-25T04:04:32.254Z,102459.36
2018-09-25T04:07:06.357Z,102457.84
2018-09-25T04:09:40.488Z,102454.20
2018-09-25T04:12:14.625Z,102463.50
2018-09-25T04:14:48.778Z,102468.37
2018-09-25T04:17:22.885Z,102474.56
2018-09-25T04:19:57.038Z,102471.16
2018-09-25T04:22:31.291Z,102478.16
2018-09-25T04:25:05.387Z,102486.72
2018-09-25T04:27:39.358Z,102489.37
2018-09-25T04:30:13.474Z,102493.66
2018-09-25T04:32:47.638Z,102492.15
2018-09-25T04:35:21.653Z,102495.32
2018-09-25T04:37:55.840Z,102488.88
2018-09-25T04:40:29.970Z,102482.06
2018-09-25T04:43:04.173Z,102470.61
2018-09-25T04:45:38.294Z,102471.13
2018-09-25T04:48:12.392Z,102475.62
2018-09-25T04:50:46.539Z,102476.25
2018-09-25T04:53:20.542Z,102473.31
2018-09-25T04:55:54.546Z,102478.57
2018-09-25T04:58:28.648Z,102471.73
2018-09-25T05:01:02.810Z,102473.69
2018-09-25T05:03:36.769Z,102481.37
2018-09-25T05:06:11.097Z,102473.61
2018-09-25T05:08:45.306Z,102473.36
2018-09-25T05:11:19.487Z,102473.44
2018-09-25T05:13:53.695Z,102469.91
2018-09-25T05:16:27.794Z,102464.44
2018-09-25T05:19:01.829Z,102464.25
2018-09-25T05:21:35.798Z,102457.88
2018-09-25T05:24:09.773Z,102456.21
2018-09-25T05:26:43.886Z,102463.52
2018-09-25T05:29:18.113Z,102466.63
2018-09-25T05:31:52.278Z,102470.59
2018-09-25T05:34:26.434Z,102471.75
2018-09-25T05:37:00.477Z,102471.86
2018-09-25T05:39:34.747Z,102473.64
2018-09-25T05:42:08.926Z,102470.94
2018-09-25T05:44:43.106Z,102469.21
2018-09-25T05:47:17.219Z,102474.89
2018-09-25T05:49:51.471Z,102479.91
2018-09-25T05:52:25.837Z,102486.26
2018-09-25T05:55:00.520Z,102486.27
2018-09-25T05:57:34.669Z,102495.42
2018-09-25T06:00:08.945Z,102493.57
2018-09-25T06:02:43.524Z,102498.28
2018-09-25T06:05:17.897Z,102502.77
2018-09-25T06:07:52.317Z,102504.42
2018-09-25T06:10:26.658Z,102506.15
2018-09-25T06:13:00.908Z,102507.55
2018-09-25T06:15:35.707Z,102510.81
2018-09-25T06:18:10.095Z,102508.13
2018-09-25T06:20:44.362Z,102512.41
2018-09-25T06:23:18.746Z,102515.33
2018-09-25T06:25:52.933Z,102514.52
2018-09-25T06:28:27.269Z,102525.75
2018-09-25T06:31:01.477Z,102519.05
2018-09-25T06:33:42.417Z,102524.82
2018-09-25T06:36:16.879Z,102522.62
2018-09-25T06:38:51.119Z,102523.67
2018-09-25T06:41:25.407Z,102527.27
2018-09-25T06:43:59.677Z,102521.87
2018-09-25T06:46:34.283Z,102519.99
2018-09-25T06:49:09.282Z,102522.47
2018-09-25T06:51:43.489Z,102520.28
2018-09-25T06:54:17.770Z,102518.50
2018-09-25T06:56:52.449Z,102523.36
2018-09-25T06:59:26.767Z,102533.70
2018-09-25T07:02:01.138Z,102523.52
2018-09-25T07:04:35.312Z,102530.02
2018-09-25T07:07:09.685Z,102528.39
2018-09-25T07:09:44.426Z,102531.03
2018-09-25T07:12:18.977Z,102533.84
2018-09-25T07:14:53.319Z,102536.31
2018-09-25T07:17:27.847Z,102546.47
2018-09-25T07:20:02.323Z,102544.41
2018-09-25T07:22:36.619Z,102555.45
2018-09-25T07:25:10.917Z,102555.56
2018-09-25T07:27:45.284Z,102564.20
2018-09-25T07:30:20.047Z,102566.92
2018-09-25T07:32:54.372Z,102575.57
2018-09-25T07:35:28.274Z,102575.70
2018-09-25T07:38:02.533Z,102580.91
2018-09-25T07:40:36.766Z,102579.58
2018-09-25T07:43:11.206Z,102589.45
2018-09-25T07:45:45.279Z,102594.59
2018-09-25T07:48:19.524Z,102598.02
2018-09-25T07:50:54.010Z,102603.97
2018-09-25T07:53:28.231Z,102602.89
2018-09-25T07:56:02.483Z,102610.54
2018-09-25T07:58:36.565Z,102618.51
2018-09-25T08:01:10.872Z,102615.67
2018-09-25T08:03:45.241Z,102614.72
2018-09-25T08:06:19.607Z,102619.38
2018-09-25T08:08:54.838Z,102615.33
2018-09-25T08:11:29.162Z,102621.08
2018-09-25T08:14:03.457Z,102627.33
2018-09-25T08:16:37.690Z,102622.78
2018-09-25T08:19:12.229Z,102623.55
2018-09-25T08:21:46.537Z,102629.08
2018-09-25T08:24:20.837Z,102636.42
2018-09-25T08:26:55.190Z,102641.50
2018-09-25T08:29:29.389Z,102646.84
2018-09-25T08:32:03.741Z,102644.23
2018-09-25T08:34:37.990Z,102649.33
2018-09-25T08:37:12.808Z,102645.44
2018-09-25T08:39:47.435Z,102646.20
2018-09-25T08:42:21.854Z,102644.52
2018-09-25T08:44:56.281Z,102645.33
2018-09-25T08:47:30.577Z,102643.59
2018-09-25T08:50:04.910Z,102651.05
2018-09-25T08:52:39.106Z,102653.89
2018-09-25T08:55:13.812Z,102651.31
2018-09-25T08:57:48.377Z,102652.16
2018-09-25T09:00:22.801Z,102657.52
2018-09-25T09:02:57.051Z,102664.34
2018-09-25T09:05:31.403Z,102659.25
2018-09-25T09:08:05.817Z,102665.67
2018-09-25T09:10:40.098Z,102654.92
2018-09-25T09:13:14.111Z,102667.55
2018-09-25T09:15:48.526Z,102660.25
2018-09-25T09:18:23.088Z,102663.75
2018-09-25T09:20:57.462Z,102663.58
2018-09-25T09:23:31.732Z,102657.92
2018-09-25T09:26:06.288Z,102669.04
2018-09-25T09:28:40.694Z,102668.19
2018-09-25T09:31:14.971Z,102672.48
2018-09-25T09:33:49.101Z,102659.77
2018-09-25T09:36:23.408Z,102666.70
2018-09-25T09:38:57.878Z,102661.14
2018-09-25T09:41:32.361Z,102668.35
2018-09-25T09:44:06.604Z,102665.17
2018-09-25T09:46:40.825Z,102659.92
2018-09-25T09:49:15.207Z,102656.20
2018-09-25T09:51:49.674Z,102654.94
2018-09-25T09:54:23.970Z,102652.11
2018-09-25T09:56:58.330Z,102644.78
2018-09-25T09:59:32.518Z,102652.22
2018-09-25T10:02:06.864Z,102652.69
2018-09-25T10:04:41.231Z,102643.63
2018-09-25T10:07:15.450Z,102646.84
2018-09-25T10:09:49.632Z,102637.76
2018-09-25T10:12:23.789Z,102632.52
2018-09-25T10:14:58.194Z,102636.13
2018-09-25T10:17:32.445Z,102632.68
2018-09-25T10:20:06.570Z,102639.64
2018-09-25T10:22:40.984Z,102635.25
2018-09-25T10:25:15.149Z,102627.17
2018-09-25T10:27:49.554Z,102629.59
2018-09-25T10:30:23.789Z,102629.65
2018-09-25T10:32:58.280Z,102627.41
2018-09-25T10:35:32.544Z,102628.69
2018-09-25T10:38:06.792Z,102632.52
2018-09-25T10:40:41.722Z,102620.59
2018-09-25T10:43:16.069Z,102623.04
2018-09-25T10:45:50.341Z,102621.47
2018-09-25T10:48:24.471Z,102623.60
2018-09-25T10:50:58.754Z,102619.70
2018-09-25T10:53:33.313Z,102624.29
2018-09-25T10:56:07.568Z,102614.59
2018-09-25T10:58:41.738Z,102605.02
2018-09-25T11:01:16.101Z,102609.08
2018-09-25T11:03:50.461Z,102616.11
2018-09-25T11:06:24.568Z,102617.61
2018-09-25T11:08:58.741Z,102611.39
2018-09-25T11:11:32.954Z,102610.28
2018-09-25T11:14:07.272Z,102600.46
2018-09-25T11:16:41.530Z,102603.52
2018-09-25T11:19:15.883Z,102598.12
2018-09-25T11:21:50.063Z,102595.30
2018-09-25T11:24:24.122Z,102596.84
2018-09-25T11:26:58.325Z,102605.95
2018-09-25T11:29:32.605Z,102602.80
2018-09-25T11:32:06.782Z,102613.74
2018-09-25T11:34:41.031Z,102602.64
2018-09-25T11:37:15.189Z,102603.17
2018-09-25T11:39:49.313Z,102605.20
2018-09-25T11:42:23.380Z,102598.48
2018-09-25T11:44:57.570Z,102592.15
2018-09-25T11:47:32.093Z,102596.63
2018-09-25T11:50:06.458Z,102595.97
2018-09-25T11:52:40.684Z,102594.20
2018-09-25T11:55:14.957Z,102600.81
2018-09-25T11:57:49.228Z,102600.44
2018-09-25T12:00:23.541Z,102595.52
2018-09-25T12:02:57.858Z,102599.45
2018-09-25T12:05:32.286Z,102604.39
2018-09-25T12:08:06.490Z,102601.18
2018-09-25T12:10:40.920Z,102601.39
2018-09-25T12:13:15.386Z,102594.73
2018-09-25T12:15:49.810Z,102588.93
2018-09-25T12:18:24.182Z,102593.39
2018-09-25T12:20:58.352Z,102590.17
2018-09-25T12:23:33.162Z,102584.95
2018-09-25T12:26:07.322Z,102583.13
2018-09-25T12:28:41.744Z,102575.36
2018-09-25T12:31:16.388Z,102572.59
2018-09-25T12:33:50.772Z,102573.45
2018-09-25T12:36:25.109Z,102578.87
2018-09-25T12:38:59.487Z,102573.09
2018-09-25T12:41:33.857Z,102569.44
2018-09-25T12:44:08.034Z,102562.78
2018-09-25T12:46:42.386Z,102562.52
2018-09-25T12:49:16.927Z,102559.61
2018-09-25T12:51:51.261Z,102557.53
2018-09-25T12:54:25.863Z,102548.14
2018-09-25T12:56:59.972Z,102539.37
2018-09-25T12:59:34.137Z,102539.72
2018-09-25T13:02:08.353Z,102551.69
2018-09-25T13:04:42.678Z,102547.03
2018-09-25T13:07:16.805Z,102555.05
2018-09-25T13:09:50.980Z,102560.61
2018-09-25T13:12:25.088Z,102567.41
2018-09-25T13:15:04.453Z,102564.97
2018-09-25T13:17:38.608Z,102553.98
2018-09-25T13:20:13.013Z,102544.94
2018-09-25T13:22:47.209Z,102537.25
2018-09-25T13:25:21.310Z,102539.18
2018-09-25T13:27:55.448Z,102541.44
2018-09-25T13:30:29.649Z,102532.67
2018-09-25T13:33:03.726Z,102526.70
2018-09-25T13:35:37.933Z,102520.56
2018-09-25T13:38:12.247Z,102522.91
2018-09-25T13:40:46.406Z,102528.31
2018-09-25T13:43:20.582Z,102528.31
2018-09-25T13:45:54.821Z,102522.08
2018-09-25T13:48:28.985Z,102515.39
2018-09-25T13:51:03.309Z,102509.14
2018-09-25T13:53:37.427Z,102511.43
2018-09-25T13:56:11.652Z,102506.11
2018-09-25T13:58:45.810Z,102498.05
2018-09-25T14:01:20.140Z,102501.60
2018-09-25T14:03:54.283Z,102488.03
2018-09-25T14:06:28.608Z,102474.83
2018-09-25T14:09:02.690Z,102473.13
2018-09-25T14:11:37.027Z,102481.28
2018-09-25T14:14:11.123Z,102476.55
2018-09-25T14:16:45.382Z,102470.58
2018-09-25T14:19:19.545Z,102468.42
2018-09-25T14:21:53.697Z,102460.70
2018-09-25T14:24:27.762Z,102459.88
2018-09-25T14:27:01.909Z,102464.59
2018-09-25T14:29:36.082Z,102466.09
2018-09-25T14:32:10.288Z,102466.15
2018-09-25T14:34:44.417Z,102468.02
2018-09-25T14:37:18.578Z,102463.72
2018-09-25T14:39:52.720Z,102464.73
2018-09-25T14:42:26.958Z,102458.50
2018-09-25T14:45:01.158Z,102454.42
2018-09-25T14:47:35.328Z,102453.67
2018-09-25T14:50:09.687Z,102453.63
2018-09-25T14:52:43.820Z,102451.85
2018-09-25T14:55:17.973Z,102450.76
2018-09-25T14:57:52.110Z,102441.20
2018-09-25T15:00:26.353Z,102446.27
2018-09-25T15:03:00.537Z,102449.58
2018-09-25T15:05:36.738Z,102439.80
2018-09-25T15:08:15.526Z,102446.72
2018-09-25T15:10:54.527Z,102450.26
2018-09-25T15:13:29.219Z,102437.80
2018-09-25T15:16:05.267Z,102435.09
2018-09-25T15:18:39.609Z,102440.50
2018-09-25T15:21:14.169Z,102434.13
2018-09-25T15:23:48.400Z,102421.25
2018-09-25T15:26:22.785Z,102423.45
2018-09-25T15:28:56.959Z,102420.13
2018-09-25T15:31:31.209Z,102418.14
2018-09-25T15:34:05.393Z,102417.47
2018-09-25T15:36:39.596Z,102415.39
2018-09-25T15:39:15.006Z,102418.53
2018-09-25T15:41:49.286Z,102414.13
2018-09-25T15:44:23.369Z,102424.25
2018-09-25T15:46:57.477Z,102416.36
2018-09-25T15:49:31.598Z,102420.44
2018-09-25T15:52:09.200Z,102418.44
2018-09-25T15:54:45.024Z,102415.62
2018-09-25T15:57:20.779Z,102411.88
2018-09-25T15:59:56.243Z,102412.56
2018-09-25T16:02:32.580Z,102410.80
2018-09-25T16:05:08.017Z,102416.05
2018-09-25T16:07:43.815Z,102412.81
2018-09-25T16:10:19.488Z,102417.39
2018-09-25T16:12:55.184Z,102409.48
2018-09-25T16:15:29.448Z,102411.67
2018-09-25T16:18:03.854Z,102410.70
2018-09-25T16:20:38.180Z,102406.07
2018-09-25T16:23:12.440Z,102406.86
2018-09-25T16:25:46.645Z,102401.59
2018-09-25T16:28:21.346Z,102405.69
2018-09-25T16:30:55.965Z,102404.98
2018-09-25T16:33:30.221Z,102416.06
2018-09-25T16:36:04.528Z,102414.59
2018-09-25T16:38:39.012Z,102400.27
2018-09-25T16:41:15.176Z,102400.02
2018-09-25T16:43:51.077Z,102404.55
2018-09-25T16:46:27.017Z,102405.02
2018-09-25T16:49:03.742Z,102404.82
2018-09-25T16:51:38.277Z,102405.53
2018-09-25T16:54:13.675Z,102403.77
2018-09-25T16:59:41.013Z,102399.35
2018-09-25T17:02:16.056Z,102399.83
2018-09-25T17:04:51.117Z,102398.35
2018-09-25T17:07:25.522Z,102403.59
2018-09-25T17:10:00.517Z,102400.66
2018-09-25T17:12:34.753Z,102405.70
2018-09-25T17:15:09.479Z,102405.59
2018-09-25T17:17:44.708Z,102408.20
2018-09-25T17:20:19.158Z,102409.70
2018-09-25T17:22:53.369Z,102414.56
2018-09-25T17:25:27.583Z,102415.18
2018-09-25T17:28:02.258Z,102413.06
2018-09-25T17:30:36.848Z,102419.33
2018-09-25T17:33:11.224Z,102410.23
2018-09-25T17:35:45.764Z,102422.66
2018-09-25T17:38:19.946Z,102427.00
2018-09-25T17:40:54.228Z,102424.56
2018-09-25T17:43:28.389Z,102431.77
2018-09-25T17:46:02.545Z,102432.48
2018-09-25T17:48:37.056Z,102433.76
2018-09-25T17:51:13.809Z,102441.56
2018-09-25T17:53:48.168Z,102435.95
2018-09-25T17:56:22.535Z,102442.00
2018-09-25T17:59:08.460Z,102439.81
2018-09-25T18:01:48.089Z,102448.16
2018-09-25T18:04:23.290Z,102454.55
2018-09-25T18:06:57.469Z,102465.58
2018-09-25T18:09:31.744Z,102467.49
2018-09-25T18:12:06.209Z,102463.88
2018-09-25T18:14:40.454Z,102454.20
2018-09-25T18:17:14.709Z,102461.61
2018-09-25T18:19:48.908Z,102455.11
2018-09-25T18:22:23.144Z,102456.26
2018-09-25T18:24:57.358Z,102457.19
2018-09-25T18:27:31.585Z,102454.43
2018-09-25T18:30:05.718Z,102465.25
2018-09-25T18:32:39.906Z,102461.44
2018-09-25T18:35:14.235Z,102459.88
2018-09-25T18:37:48.383Z,102458.00
2018-09-25T18:40:22.629Z,102455.59
2018-09-25T18:42:56.846Z,102466.59
2018-09-25T18:45:31.049Z,102465.55
2018-09-25T18:48:05.394Z,102465.16
2018-09-25T18:50:39.824Z,102468.70
2018-09-25T18:53:13.889Z,102470.20
2018-09-25T18:55:48.145Z,102463.79
2018-09-25T18:58:22.423Z,102468.77
2018-09-25T19:00:56.609Z,102471.94
2018-09-25T19:03:30.825Z,102476.27
2018-09-25T19:06:05.000Z,102480.11
2018-09-25T19:08:39.196Z,102481.33
2018-09-25T19:11:13.393Z,102481.34
2018-09-25T19:13:47.645Z,102479.19
2018-09-25T19:16:21.822Z,102479.47
2018-09-25T19:18:56.056Z,102482.91
2018-09-25T19:21:30.294Z,102488.09
2018-09-25T19:24:04.485Z,102486.62
2018-09-25T19:26:38.590Z,102488.98
2018-09-25T19:29:12.745Z,102492.80
2018-09-25T19:31:47.010Z,102506.53
2018-09-25T19:34:21.088Z,102505.31
2018-09-25T19:36:55.369Z,102503.05
2018-09-25T19:39:29.570Z,102495.19
2018-09-25T19:42:03.757Z,102495.08
2018-09-25T19:44:37.933Z,102490.45
2018-09-25T19:47:12.492Z,102497.64
2018-09-25T19:49:46.592Z,102489.70
2018-09-25T19:52:20.747Z,102495.27
2018-09-25T19:54:54.972Z,102499.39
2018-09-25T19:57:29.192Z,102496.49
2018-09-25T20:00:03.414Z,102488.97
2018-09-25T20:02:37.872Z,102500.74
2018-09-25T20:05:12.006Z,102502.06
2018-09-25T20:07:46.105Z,102496.89
2018-09-25T20:10:20.325Z,102499.66
2018-09-25T20:12:54.621Z,102493.63
2018-09-25T20:15:28.700Z,102494.34
2018-09-25T20:18:02.904Z,102495.97
2018-09-25T20:20:37.088Z,102493.80
2018-09-25T20:23:11.269Z,102489.84
2018-09-25T20:25:45.529Z,102494.00
2018-09-25T20:28:19.668Z,102491.37
2018-09-25T20:30:53.757Z,102489.28
2018-09-25T20:33:28.104Z,102483.86
2018-09-25T20:36:02.250Z,102482.49
2018-09-25T20:38:36.416Z,102488.52
2018-09-25T20:41:10.645Z,102477.43
2018-09-25T20:43:44.970Z,102483.34
2018-09-25T20:46:19.582Z,102485.94
2018-09-25T20:48:53.725Z,102482.22
2018-09-25T20:51:28.003Z,102485.31
2018-09-25T20:54:02.531Z,102479.27
2018-09-25T20:56:36.761Z,102480.67
2018-09-25T20:59:10.929Z,102479.23
2018-09-25T21:01:45.114Z,102477.08
2018-09-25T21:04:19.261Z,102485.08
2018-09-25T21:06:53.575Z,102476.33
2018-09-25T21:09:28.167Z,102475.36
2018-09-25T21:12:02.639Z,102457.55
2018-09-25T21:14:36.910Z,102457.14
2018-09-25T21:17:11.429Z,102456.90
2018-09-25T21:19:45.879Z,102451.56
2018-09-25T21:22:20.328Z,102446.87
2018-09-25T21:24:54.744Z,102445.72
2018-09-25T21:27:40.810Z,102443.98
2018-09-25T21:30:15.095Z,102443.13
2018-09-25T21:32:49.365Z,102433.42
2018-09-25T21:35:23.609Z,102436.03
2018-09-25T21:37:57.743Z,102438.98
2018-09-25T21:40:32.421Z,102440.19
2018-09-25T21:43:08.688Z,102436.33
2018-09-25T21:45:42.880Z,102435.80
2018-09-25T21:48:17.134Z,102429.48
2018-09-25T21:50:51.588Z,102429.31
2018-09-25T21:53:26.006Z,102433.36
2018-09-25T21:56:00.423Z,102437.31
2018-09-25T21:58:34.704Z,102425.94
2018-09-25T22:01:08.945Z,102428.75
2018-09-25T22:03:43.196Z,102419.05
2018-09-25T22:06:17.583Z,102429.61
2018-09-25T22:08:51.701Z,102424.97
2018-09-25T22:11:25.918Z,102425.72
2018-09-25T22:14:00.026Z,102420.02
2018-09-25T22:16:35.768Z,102422.44
2018-09-25T22:19:10.157Z,102417.98
2018-09-25T22:21:44.329Z,102419.38
2018-09-25T22:24:18.434Z,102425.88
2018-09-25T22:26:52.644Z,102425.20
2018-09-25T22:29:27.060Z,102424.95
2018-09-25T22:32:01.573Z,102422.84
2018-09-25T22:34:35.971Z,102423.46
2018-09-25T22:37:10.225Z,102417.97
2018-09-25T22:39:44.441Z,102413.27
2018-09-25T22:42:18.863Z,102406.70
2018-09-25T22:44:53.146Z,102412.81
2018-09-25T22:47:27.308Z,102413.50
2018-09-25T22:50:01.481Z,102411.25
2018-09-25T22:52:36.562Z,102419.54
2018-09-25T22:55:10.770Z,102423.30
2018-09-25T22:57:45.039Z,102426.67
2018-09-25T23:00:19.356Z,102424.25
2018-09-25T23:02:53.758Z,102421.05
2018-09-25T23:05:27.791Z,102417.44
2018-09-25T23:08:01.984Z,102415.49
2018-09-25T23:10:36.244Z,102416.20
2018-09-25T23:13:10.343Z,102425.98
2018-09-25T23:15:44.538Z,102431.79
2018-09-25T23:18:18.749Z,102428.50
2018-09-25T23:20:52.780Z,102419.04
2018-09-25T23:23:27.018Z,102406.41
2018-09-25T23:26:01.299Z,102390.30
2018-09-25T23:28:35.348Z,102380.00
2018-09-25T23:31:09.442Z,102380.91
2018-09-25T23:33:43.499Z,102381.92
2018-09-25T23:36:17.742Z,102383.98
2018-09-25T23:38:51.920Z,102391.33
2018-09-25T23:41:26.125Z,102392.55
2018-09-25T23:44:00.298Z,102381.42
2018-09-25T23:47:07.197Z,102373.70
2018-09-25T23:50:40.775Z,102379.61
2018-09-25T23:53:22.405Z,102368.55
2018-09-25T23:56:09.799Z,102360.19
2018-09-25T23:58:45.935Z,102356.31
